createdAt,value
2016-11-17T00:00:49.186Z,0
2016-11-17T00:01:49.211Z,0
2016-11-17T00:02:49.221Z,0
2016-11-17T00:03:49.266Z,0
2016-11-17T00:04:49.255Z,0
2016-11-17T00:05:49.276Z,0
2016-11-17T00:06:49.288Z,0
2016-11-17T00:07:49.297Z,0
2016-11-17T00:08:49.319Z,0
2016-11-17T00:09:49.335Z,0
2016-11-17T00:10:49.349Z,0
2016-11-17T00:11:49.372Z,0
2016-11-17T00:12:49.380Z,0
2016-11-17T00:13:49.398Z,0
2016-11-17T00:14:49.407Z,0
2016-11-17T00:15:49.429Z,0
2016-11-17T00:16:49.452Z,0
2016-11-17T00:17:49.456Z,0
2016-11-17T00:18:49.491Z,0
2016-11-17T00:19:49.500Z,0
2016-11-17T00:20:49.536Z,0
2016-11-17T00:21:49.532Z,0
2016-11-17T00:22:49.543Z,0
2016-11-17T00:23:49.553Z,0
2016-11-17T00:24:49.575Z,0
2016-11-17T00:25:49.590Z,0
2016-11-17T00:26:49.612Z,0
2016-11-17T00:27:49.629Z,0
2016-11-17T00:28:49.641Z,0
2016-11-17T00:29:49.659Z,0
2016-11-17T00:30:49.676Z,0
2016-11-17T00:31:49.684Z,0
2016-11-17T00:32:49.704Z,0
2016-11-17T00:33:49.813Z,0
2016-11-17T00:34:49.747Z,0
2016-11-17T00:35:49.756Z,0
2016-11-17T00:36:49.781Z,0
2016-11-17T00:37:49.796Z,0
2016-11-17T00:38:49.814Z,0
2016-11-17T00:39:49.821Z,0
2016-11-17T00:40:49.832Z,0
2016-11-17T00:41:49.850Z,0
2016-11-17T00:42:49.859Z,0
2016-11-17T00:43:49.888Z,0
2016-11-17T00:44:49.900Z,0
2016-11-17T00:45:49.915Z,0
2016-11-17T00:46:49.930Z,0
2016-11-17T00:47:49.939Z,0
2016-11-17T00:48:49.992Z,0
2016-11-17T00:49:49.984Z,0
2016-11-17T00:50:49.987Z,0
2016-11-17T00:51:49.999Z,0
2016-11-17T00:52:50.033Z,0
2016-11-17T00:53:50.036Z,0
2016-11-17T00:54:50.053Z,0
2016-11-17T00:55:50.078Z,0
2016-11-17T00:56:50.087Z,0
2016-11-17T00:57:50.108Z,0
2016-11-17T00:58:50.128Z,0
2016-11-17T00:59:50.145Z,0
2016-11-17T01:00:50.153Z,0
2016-11-17T01:01:50.177Z,0
2016-11-17T01:02:50.186Z,0
2016-11-17T01:03:50.217Z,0
2016-11-17T01:04:50.226Z,0
2016-11-17T01:05:50.239Z,0
2016-11-17T01:06:50.254Z,0
2016-11-17T01:07:50.264Z,0
2016-11-17T01:08:50.291Z,0
2016-11-17T01:09:50.304Z,0
2016-11-17T01:10:50.324Z,0
2016-11-17T01:11:50.334Z,0
2016-11-17T01:12:50.353Z,0
2016-11-17T01:13:50.416Z,0
2016-11-17T01:14:50.388Z,0
2016-11-17T01:15:50.412Z,0
2016-11-17T01:16:50.417Z,0
2016-11-17T01:17:50.422Z,0
2016-11-17T01:18:50.455Z,0
2016-11-17T01:19:50.468Z,0
2016-11-17T01:20:50.492Z,0
2016-11-17T01:21:50.507Z,0
2016-11-17T01:22:50.515Z,0
2016-11-17T01:23:50.531Z,0
2016-11-17T01:24:50.552Z,0
2016-11-17T01:25:50.561Z,0
2016-11-17T01:26:50.583Z,0
2016-11-17T01:27:50.595Z,0
2016-11-17T01:28:50.611Z,0
2016-11-17T01:29:50.627Z,0
2016-11-17T01:30:50.644Z,0
2016-11-17T01:31:50.667Z,0
2016-11-17T01:32:50.679Z,0
2016-11-17T01:33:50.680Z,0
2016-11-17T01:34:50.702Z,0
2016-11-17T01:35:50.715Z,0
2016-11-17T01:36:50.744Z,0
2016-11-17T01:37:50.758Z,0
2016-11-17T01:38:50.774Z,0
2016-11-17T01:39:50.788Z,0
2016-11-17T01:40:50.813Z,0
2016-11-17T01:41:50.821Z,0
2016-11-17T01:42:50.845Z,0
2016-11-17T01:43:50.843Z,0
2016-11-17T01:44:50.879Z,0
2016-11-17T01:45:50.888Z,0
2016-11-17T01:46:50.893Z,0
2016-11-17T01:47:50.914Z,0
2016-11-17T01:48:50.930Z,0
2016-11-17T01:49:50.949Z,0
2016-11-17T01:50:50.958Z,0
2016-11-17T01:51:50.979Z,0
2016-11-17T01:52:50.997Z,0
2016-11-17T01:53:51.011Z,0
2016-11-17T01:54:51.028Z,0
2016-11-17T01:55:51.042Z,0
2016-11-17T01:56:51.054Z,0
2016-11-17T01:57:51.079Z,0
2016-11-17T01:58:51.086Z,0
2016-11-17T01:59:51.109Z,0
2016-11-17T02:00:51.122Z,0
2016-11-17T02:01:51.181Z,0
2016-11-17T02:02:51.161Z,0
2016-11-17T02:03:51.175Z,0
2016-11-17T02:04:51.182Z,0
2016-11-17T02:05:51.209Z,0
2016-11-17T02:06:51.224Z,0
2016-11-17T02:07:51.243Z,0
2016-11-17T02:08:51.268Z,0
2016-11-17T02:09:51.274Z,0
2016-11-17T02:10:51.277Z,0
2016-11-17T02:11:51.332Z,0
2016-11-17T02:12:51.320Z,0
2016-11-17T02:13:51.330Z,0
2016-11-17T02:14:51.339Z,0
2016-11-17T02:15:51.369Z,0
2016-11-17T02:16:51.391Z,0
2016-11-17T02:17:51.396Z,0
2016-11-17T02:18:51.412Z,0
2016-11-17T02:19:51.428Z,0
2016-11-17T02:20:51.445Z,0
2016-11-17T02:21:51.464Z,0
2016-11-17T02:22:51.479Z,0
2016-11-17T02:23:51.494Z,0
2016-11-17T02:24:51.504Z,0
2016-11-17T02:25:51.540Z,0
2016-11-17T02:26:51.548Z,0
2016-11-17T02:27:51.567Z,0
2016-11-17T02:28:51.576Z,0
2016-11-17T02:29:51.585Z,0
2016-11-17T02:30:51.613Z,0
2016-11-17T02:31:51.619Z,0
2016-11-17T02:32:51.641Z,0
2016-11-17T02:33:51.648Z,0
2016-11-17T02:34:51.676Z,0
2016-11-17T02:35:51.689Z,0
2016-11-17T02:36:51.700Z,0
2016-11-17T02:37:51.739Z,0
2016-11-17T02:38:51.732Z,0
2016-11-17T02:39:51.757Z,0
2016-11-17T02:40:51.759Z,0
2016-11-17T02:41:51.789Z,0
2016-11-17T02:42:51.795Z,0
2016-11-17T02:43:51.819Z,0
2016-11-17T02:44:51.821Z,0
2016-11-17T02:45:52.188Z,0
2016-11-17T02:46:51.860Z,0
2016-11-17T02:47:51.887Z,0
2016-11-17T02:48:51.886Z,0
2016-11-17T02:49:51.909Z,0
2016-11-17T02:50:51.931Z,0
2016-11-17T02:51:51.951Z,0
2016-11-17T02:52:51.959Z,0
2016-11-17T02:53:51.971Z,0
2016-11-17T02:54:51.980Z,0
2016-11-17T02:55:52.012Z,0
2016-11-17T02:56:52.027Z,0
2016-11-17T02:57:52.052Z,0
2016-11-17T02:58:52.060Z,0
2016-11-17T02:59:52.073Z,0
2016-11-17T03:00:52.086Z,0
2016-11-17T03:01:52.422Z,0
2016-11-17T03:02:52.109Z,0
2016-11-17T03:03:52.137Z,0
2016-11-17T03:04:52.150Z,0
2016-11-17T03:05:52.196Z,0
2016-11-17T03:06:52.183Z,0
2016-11-17T03:07:52.209Z,0
2016-11-17T03:08:52.218Z,0
2016-11-17T03:09:52.237Z,0
2016-11-17T03:10:52.238Z,0
2016-11-17T03:11:52.282Z,0
2016-11-17T03:12:52.273Z,0
2016-11-17T03:13:52.310Z,0
2016-11-17T03:14:52.409Z,0
2016-11-17T03:15:52.328Z,0
2016-11-17T03:16:52.336Z,0
2016-11-17T03:17:52.360Z,0
2016-11-17T03:18:52.378Z,0
2016-11-17T03:19:52.405Z,0
2016-11-17T03:20:52.405Z,0
2016-11-17T03:21:52.440Z,0
2016-11-17T03:22:52.451Z,0
2016-11-17T03:23:52.451Z,0
2016-11-17T03:24:52.479Z,0
2016-11-17T03:25:52.505Z,0
2016-11-17T03:26:52.505Z,0
2016-11-17T03:27:52.518Z,0
2016-11-17T03:28:52.538Z,0
2016-11-17T03:29:52.561Z,0
2016-11-17T03:30:52.565Z,0
2016-11-17T03:31:52.591Z,0
2016-11-17T03:32:52.596Z,0
2016-11-17T03:33:52.934Z,0
2016-11-17T03:34:52.640Z,0
2016-11-17T03:35:52.993Z,0
2016-11-17T03:36:52.663Z,0
2016-11-17T03:37:52.684Z,0
2016-11-17T03:38:52.689Z,0
2016-11-17T03:39:52.731Z,0
2016-11-17T03:40:52.738Z,0
2016-11-17T03:41:52.749Z,0
2016-11-17T03:42:52.761Z,0
2016-11-17T03:43:52.783Z,0
2016-11-17T03:44:52.803Z,0
2016-11-17T03:45:52.808Z,0
2016-11-17T03:46:52.830Z,0
2016-11-17T03:47:52.854Z,0
2016-11-17T03:48:52.861Z,0
2016-11-17T03:49:52.979Z,0
2016-11-17T03:50:52.890Z,0
2016-11-17T03:51:52.919Z,0
2016-11-17T03:52:52.939Z,0
2016-11-17T03:53:52.948Z,0
2016-11-17T03:54:52.953Z,0
2016-11-17T03:55:52.979Z,0
2016-11-17T03:56:53.028Z,0
2016-11-17T03:57:53.006Z,0
2016-11-17T03:58:53.028Z,0
2016-11-17T03:59:53.035Z,0
2016-11-17T04:01:22.749Z,0
2016-11-17T04:01:53.079Z,0
2016-11-17T04:02:53.083Z,0
2016-11-17T04:03:53.101Z,0
2016-11-17T04:04:53.127Z,0
2016-11-17T04:05:53.139Z,0
2016-11-17T04:06:53.152Z,0
2016-11-17T04:07:53.168Z,0
2016-11-17T04:08:53.189Z,0
2016-11-17T04:09:53.215Z,0
2016-11-17T04:10:53.214Z,0
2016-11-17T04:11:53.227Z,0
2016-11-17T04:12:53.250Z,0
2016-11-17T04:13:53.261Z,0
2016-11-17T04:14:53.281Z,0
2016-11-17T04:15:53.301Z,0
2016-11-17T04:16:53.312Z,0
2016-11-17T04:17:53.337Z,0
2016-11-17T04:18:53.369Z,0
2016-11-17T04:19:53.355Z,0
2016-11-17T04:20:53.372Z,0
2016-11-17T04:21:53.401Z,0
2016-11-17T04:22:53.420Z,0
2016-11-17T04:23:53.435Z,0
2016-11-17T04:24:53.442Z,0
2016-11-17T04:25:53.469Z,0
2016-11-17T04:26:53.484Z,0
2016-11-17T04:27:53.810Z,0
2016-11-17T04:28:53.508Z,0
2016-11-17T04:29:53.538Z,0
2016-11-17T04:30:53.546Z,0
2016-11-17T04:31:53.561Z,0
2016-11-17T04:32:53.574Z,0
2016-11-17T04:33:53.599Z,0
2016-11-17T04:34:53.615Z,0
2016-11-17T04:35:53.624Z,0
2016-11-17T04:36:53.631Z,0
2016-11-17T04:37:53.687Z,0
2016-11-17T04:38:53.680Z,0
2016-11-17T04:39:53.683Z,0
2016-11-17T04:40:53.708Z,0
2016-11-17T04:41:54.066Z,0
2016-11-17T04:42:53.737Z,0
2016-11-17T04:43:53.747Z,0
2016-11-17T04:44:53.766Z,0
2016-11-17T04:45:53.784Z,0
2016-11-17T04:46:53.799Z,0
2016-11-17T04:47:53.817Z,0
2016-11-17T04:48:53.828Z,0
2016-11-17T04:49:53.861Z,0
2016-11-17T04:50:53.874Z,0
2016-11-17T04:51:53.897Z,0
2016-11-17T04:52:53.902Z,0
2016-11-17T04:53:53.919Z,0
2016-11-17T04:54:53.927Z,0
2016-11-17T04:55:53.959Z,0
2016-11-17T04:56:53.968Z,0
2016-11-17T04:57:53.978Z,0
2016-11-17T04:58:54.016Z,0
2016-11-17T04:59:54.028Z,0
2016-11-17T05:00:54.031Z,0
2016-11-17T05:01:54.132Z,0
2016-11-17T05:02:54.135Z,0
2016-11-17T05:03:54.089Z,0
2016-11-17T05:04:54.112Z,0
2016-11-17T05:05:54.152Z,0
2016-11-17T05:06:54.118Z,0
2016-11-17T05:07:54.151Z,0
2016-11-17T05:08:54.165Z,0
2016-11-17T05:09:54.180Z,0
2016-11-17T05:10:54.190Z,0
2016-11-17T05:11:54.230Z,0
2016-11-17T05:12:54.226Z,0
2016-11-17T05:13:54.247Z,0
2016-11-17T05:14:54.246Z,0
2016-11-17T05:15:54.265Z,0
2016-11-17T05:16:54.279Z,0
2016-11-17T05:17:54.298Z,0
2016-11-17T05:18:54.314Z,0
2016-11-17T05:19:54.344Z,0
2016-11-17T05:20:54.356Z,0
2016-11-17T05:21:54.383Z,0
2016-11-17T05:22:54.371Z,0
2016-11-17T05:23:54.395Z,0
2016-11-17T05:24:54.412Z,0
2016-11-17T05:25:54.431Z,0
2016-11-17T05:26:54.454Z,0
2016-11-17T05:27:54.460Z,0
2016-11-17T05:28:54.486Z,0
2016-11-17T05:29:54.493Z,0
2016-11-17T05:30:54.498Z,0
2016-11-17T05:31:54.539Z,0
2016-11-17T05:32:54.534Z,0
2016-11-17T05:33:54.576Z,0
2016-11-17T05:34:54.570Z,0
2016-11-17T05:35:54.591Z,0
2016-11-17T05:36:54.601Z,0
2016-11-17T05:37:54.613Z,0
2016-11-17T05:38:54.667Z,0
2016-11-17T05:39:54.656Z,0
2016-11-17T05:40:54.667Z,0
2016-11-17T05:41:54.702Z,0
2016-11-17T05:42:54.702Z,0
2016-11-17T05:43:54.731Z,0
2016-11-17T05:44:54.736Z,0
2016-11-17T05:45:54.749Z,0
2016-11-17T05:46:54.764Z,0
2016-11-17T05:47:54.786Z,0
2016-11-17T05:48:54.800Z,0
2016-11-17T05:49:54.817Z,0
2016-11-17T05:50:54.829Z,0
2016-11-17T05:51:54.866Z,0
2016-11-17T05:52:54.863Z,0
2016-11-17T05:53:54.883Z,0
2016-11-17T05:54:54.896Z,0
2016-11-17T05:55:54.921Z,0
2016-11-17T05:56:54.916Z,0
2016-11-17T05:57:54.957Z,0
2016-11-17T05:58:54.955Z,0
2016-11-17T05:59:54.974Z,0
2016-11-17T06:00:54.999Z,0
2016-11-17T06:01:54.997Z,0
2016-11-17T06:02:55.028Z,0
2016-11-17T06:03:55.042Z,0
2016-11-17T06:04:55.054Z,0
2016-11-17T06:05:55.069Z,0
2016-11-17T06:06:55.097Z,0
2016-11-17T06:07:55.107Z,0
2016-11-17T06:08:55.113Z,0
2016-11-17T06:09:55.131Z,0
2016-11-17T06:10:55.148Z,0
2016-11-17T06:11:55.179Z,0
2016-11-17T06:12:55.185Z,0
2016-11-17T06:13:55.198Z,0
2016-11-17T06:14:55.206Z,0
2016-11-17T06:15:55.234Z,0
2016-11-17T06:16:55.251Z,0
2016-11-17T06:17:55.266Z,0
2016-11-17T06:18:55.285Z,0
2016-11-17T06:19:55.307Z,0
2016-11-17T06:20:55.506Z,0
2016-11-17T06:21:55.324Z,0
2016-11-17T06:22:55.342Z,0
2016-11-17T06:23:55.362Z,0
2016-11-17T06:24:55.375Z,0
2016-11-17T06:25:55.393Z,0
2016-11-17T06:26:55.434Z,4
2016-11-17T06:27:55.429Z,4
2016-11-17T06:28:55.439Z,0
2016-11-17T06:29:55.475Z,4
2016-11-17T06:30:55.468Z,4
2016-11-17T06:31:55.500Z,4
2016-11-17T06:32:55.499Z,4
2016-11-17T06:33:55.517Z,4
2016-11-17T06:34:55.533Z,8
2016-11-17T06:35:55.552Z,4
2016-11-17T06:36:55.563Z,4
2016-11-17T06:37:55.574Z,8
2016-11-17T06:38:55.604Z,12
2016-11-17T06:39:55.950Z,8
2016-11-17T06:40:55.633Z,12
2016-11-17T06:41:55.640Z,12
2016-11-17T06:42:55.662Z,12
2016-11-17T06:43:55.683Z,12
2016-11-17T06:44:55.698Z,16
2016-11-17T06:45:55.722Z,16
2016-11-17T06:46:55.728Z,12
2016-11-17T06:47:55.755Z,16
2016-11-17T06:48:55.756Z,12
2016-11-17T06:49:55.815Z,16
2016-11-17T06:50:55.795Z,16
2016-11-17T06:51:55.809Z,20
2016-11-17T06:52:55.825Z,28
2016-11-17T06:53:55.843Z,36
2016-11-17T06:54:55.849Z,48
2016-11-17T06:55:55.885Z,64
2016-11-17T06:56:55.884Z,76
2016-11-17T06:57:55.899Z,80
2016-11-17T06:58:55.903Z,84
2016-11-17T06:59:55.947Z,92
2016-11-17T07:00:55.943Z,96
2016-11-17T07:01:55.973Z,104
2016-11-17T07:02:55.968Z,108
2016-11-17T07:03:56.010Z,108
2016-11-17T07:04:56.021Z,124
2016-11-17T07:05:56.029Z,148
2016-11-17T07:06:56.033Z,192
2016-11-17T07:07:56.074Z,244
2016-11-17T07:08:56.072Z,292
2016-11-17T07:09:56.078Z,312
2016-11-17T07:10:56.101Z,320
2016-11-17T07:11:56.135Z,316
2016-11-17T07:12:56.133Z,312
2016-11-17T07:13:56.151Z,316
2016-11-17T07:14:56.161Z,312
2016-11-17T07:15:56.197Z,312
2016-11-17T07:16:56.201Z,316
2016-11-17T07:17:56.224Z,328
2016-11-17T07:18:56.222Z,356
2016-11-17T07:19:56.259Z,380
2016-11-17T07:20:56.254Z,392
2016-11-17T07:21:56.293Z,404
2016-11-17T07:22:56.294Z,420
2016-11-17T07:23:56.635Z,436
2016-11-17T07:24:56.327Z,452
2016-11-17T07:25:56.342Z,452
2016-11-17T07:26:56.348Z,444
2016-11-17T07:27:56.364Z,424
2016-11-17T07:28:56.397Z,416
2016-11-17T07:29:56.426Z,428
2016-11-17T07:30:56.416Z,440
2016-11-17T07:31:56.442Z,444
2016-11-17T07:32:56.445Z,440
2016-11-17T07:33:56.553Z,432
2016-11-17T07:34:56.503Z,440
2016-11-17T07:35:56.497Z,480
2016-11-17T07:36:56.509Z,532
2016-11-17T07:37:56.526Z,580
2016-11-17T07:38:56.527Z,660
2016-11-17T07:39:56.615Z,704
2016-11-17T07:40:56.572Z,696
2016-11-17T07:41:56.602Z,696
2016-11-17T07:42:56.605Z,752
2016-11-17T07:43:56.619Z,800
2016-11-17T07:44:56.632Z,808
2016-11-17T07:45:56.657Z,864
2016-11-17T07:46:56.679Z,916
2016-11-17T07:47:56.688Z,884
2016-11-17T07:48:56.684Z,936
2016-11-17T07:49:56.724Z,952
2016-11-17T07:50:56.733Z,1036
2016-11-17T07:51:56.751Z,1064
2016-11-17T07:52:56.757Z,1036
2016-11-17T07:53:56.778Z,1048
2016-11-17T07:54:56.790Z,1064
2016-11-17T07:55:56.810Z,1136
2016-11-17T07:56:56.852Z,1240
2016-11-17T07:57:56.844Z,1328
2016-11-17T07:58:56.849Z,1428
2016-11-17T07:59:56.884Z,1580
2016-11-17T08:00:56.884Z,1772
2016-11-17T08:01:56.917Z,1916
2016-11-17T08:02:56.921Z,1980
2016-11-17T08:03:56.937Z,1896
2016-11-17T08:04:56.956Z,1776
2016-11-17T08:05:56.971Z,1900
2016-11-17T08:06:56.988Z,2088
2016-11-17T08:07:57.021Z,2132
2016-11-17T08:08:57.034Z,2064
2016-11-17T08:09:57.039Z,2008
2016-11-17T08:10:57.050Z,2036
2016-11-17T08:11:57.073Z,2100
2016-11-17T08:12:57.079Z,2220
2016-11-17T08:13:57.101Z,2680
2016-11-17T08:14:57.112Z,3036
2016-11-17T08:15:57.133Z,3228
2016-11-17T08:16:57.139Z,3316
2016-11-17T08:17:57.183Z,3364
2016-11-17T08:18:57.174Z,3324
2016-11-17T08:19:57.224Z,3120
2016-11-17T08:20:57.203Z,2856
2016-11-17T08:21:57.242Z,2604
2016-11-17T08:22:57.231Z,2432
2016-11-17T08:23:57.261Z,2268
2016-11-17T08:24:57.290Z,2164
2016-11-17T08:25:57.294Z,2020
2016-11-17T08:26:57.297Z,1872
2016-11-17T08:27:57.424Z,1816
2016-11-17T08:28:57.376Z,1880
2016-11-17T08:29:57.358Z,1828
2016-11-17T08:30:57.356Z,1680
2016-11-17T08:31:57.379Z,1504
2016-11-17T08:32:57.402Z,1380
2016-11-17T08:33:57.420Z,1360
2016-11-17T08:34:57.423Z,1292
2016-11-17T08:35:57.463Z,1212
2016-11-17T08:36:57.556Z,1156
2016-11-17T08:37:57.487Z,1084
2016-11-17T08:38:57.503Z,1092
2016-11-17T08:39:57.525Z,1036
2016-11-17T08:40:57.521Z,836
2016-11-17T08:41:57.551Z,712
2016-11-17T08:42:57.567Z,772
2016-11-17T08:43:57.597Z,808
2016-11-17T08:44:57.594Z,900
2016-11-17T08:45:57.606Z,840
2016-11-17T08:46:57.625Z,820
2016-11-17T08:47:57.653Z,884
2016-11-17T08:48:57.666Z,816
2016-11-17T08:49:57.685Z,732
2016-11-17T08:50:57.690Z,664
2016-11-17T08:51:57.713Z,644
2016-11-17T08:52:57.721Z,736
2016-11-17T08:53:58.069Z,896
2016-11-17T08:54:57.756Z,1056
2016-11-17T08:55:57.758Z,1256
2016-11-17T08:56:57.777Z,1340
2016-11-17T08:57:57.808Z,1300
2016-11-17T08:58:57.820Z,1312
2016-11-17T08:59:57.838Z,1112
2016-11-17T09:00:57.852Z,956
2016-11-17T09:01:57.913Z,936
2016-11-17T09:02:57.881Z,768
2016-11-17T09:03:57.898Z,664
2016-11-17T09:04:57.910Z,676
2016-11-17T09:05:58.028Z,868
2016-11-17T09:06:57.936Z,1036
2016-11-17T09:07:57.965Z,1028
2016-11-17T09:08:57.975Z,924
2016-11-17T09:09:58.027Z,912
2016-11-17T09:10:58.004Z,940
2016-11-17T09:11:58.346Z,1056
2016-11-17T09:12:58.029Z,1220
2016-11-17T09:13:58.065Z,1252
2016-11-17T09:14:58.091Z,1256
2016-11-17T09:15:58.090Z,1276
2016-11-17T09:16:58.100Z,1320
2016-11-17T09:17:58.118Z,1472
2016-11-17T09:18:58.124Z,1544
2016-11-17T09:19:58.297Z,1668
2016-11-17T09:20:58.167Z,1968
2016-11-17T09:21:58.194Z,1956
2016-11-17T09:22:58.204Z,1956
2016-11-17T09:23:58.215Z,1976
2016-11-17T09:24:58.274Z,1956
2016-11-17T09:25:58.261Z,2176
2016-11-17T09:26:58.270Z,2356
2016-11-17T09:27:58.299Z,2536
2016-11-17T09:28:58.300Z,2400
2016-11-17T09:29:58.325Z,2248
2016-11-17T09:30:58.347Z,2144
2016-11-17T09:31:58.353Z,2284
2016-11-17T09:32:58.372Z,2308
2016-11-17T09:33:58.697Z,2320
2016-11-17T09:34:58.386Z,2504
2016-11-17T09:35:58.412Z,2544
2016-11-17T09:36:58.429Z,2728
2016-11-17T09:37:58.451Z,2820
2016-11-17T09:38:58.505Z,2828
2016-11-17T09:39:58.479Z,3108
2016-11-17T09:40:58.485Z,3248
2016-11-17T09:41:58.517Z,3324
2016-11-17T09:42:58.522Z,3300
2016-11-17T09:43:58.589Z,3292
2016-11-17T09:44:58.589Z,2864
2016-11-17T09:45:58.577Z,2476
2016-11-17T09:46:58.588Z,2184
2016-11-17T09:47:58.609Z,2092
2016-11-17T09:48:58.623Z,2248
2016-11-17T09:49:58.649Z,2412
2016-11-17T09:50:58.650Z,2512
2016-11-17T09:51:58.670Z,2580
2016-11-17T09:52:58.683Z,2432
2016-11-17T09:53:58.711Z,2248
2016-11-17T09:54:58.717Z,2356
2016-11-17T09:55:58.746Z,2572
2016-11-17T09:56:58.744Z,2464
2016-11-17T09:57:58.764Z,2432
2016-11-17T09:58:58.803Z,2812
2016-11-17T09:59:58.810Z,3336
2016-11-17T10:00:58.810Z,3724
2016-11-17T10:01:58.918Z,3964
2016-11-17T10:02:58.844Z,4040
2016-11-17T10:03:58.882Z,4172
2016-11-17T10:04:58.891Z,4380
2016-11-17T10:05:58.914Z,4344
2016-11-17T10:06:58.922Z,4140
2016-11-17T10:07:58.941Z,4084
2016-11-17T10:08:58.958Z,4284
2016-11-17T10:09:58.973Z,4608
2016-11-17T10:10:58.977Z,4728
2016-11-17T10:11:59.003Z,4604
2016-11-17T10:12:59.019Z,4524
2016-11-17T10:13:59.043Z,4492
2016-11-17T10:14:59.044Z,4408
2016-11-17T10:15:59.065Z,4264
2016-11-17T10:16:59.092Z,4092
2016-11-17T10:17:59.106Z,3876
2016-11-17T10:18:59.148Z,3812
2016-11-17T10:19:59.131Z,3872
2016-11-17T10:20:59.188Z,3780
2016-11-17T10:21:59.167Z,3604
2016-11-17T10:22:59.270Z,3468
2016-11-17T10:23:59.193Z,3368
2016-11-17T10:24:59.267Z,3224
2016-11-17T10:25:59.247Z,3068
2016-11-17T10:26:59.277Z,2976
2016-11-17T10:27:59.265Z,2996
2016-11-17T10:28:59.307Z,3092
2016-11-17T10:29:59.307Z,3108
2016-11-17T10:30:59.340Z,3136
2016-11-17T10:31:59.422Z,3192
2016-11-17T10:32:59.369Z,3340
2016-11-17T10:33:59.377Z,3664
2016-11-17T10:34:59.403Z,4048
2016-11-17T10:35:59.427Z,4356
2016-11-17T10:36:59.423Z,4188
2016-11-17T10:37:59.446Z,3784
2016-11-17T10:38:59.449Z,3484
2016-11-17T10:39:59.486Z,3180
2016-11-17T10:40:59.487Z,2888
2016-11-17T10:41:59.501Z,2752
2016-11-17T10:42:59.519Z,2644
2016-11-17T10:43:59.544Z,2464
2016-11-17T10:44:59.555Z,2320
2016-11-17T10:45:59.585Z,2252
2016-11-17T10:46:59.600Z,2248
2016-11-17T10:47:59.616Z,2392
2016-11-17T10:48:59.612Z,2736
2016-11-17T10:49:59.635Z,3144
2016-11-17T10:50:59.645Z,3492
2016-11-17T10:51:59.680Z,3896
2016-11-17T10:52:59.696Z,4488
2016-11-17T10:53:59.705Z,5084
2016-11-17T10:54:59.724Z,5284
2016-11-17T10:56:00.072Z,5100
2016-11-17T10:56:59.747Z,4992
2016-11-17T10:58:00.394Z,5316
2016-11-17T10:58:59.777Z,5416
2016-11-17T10:59:59.799Z,5096
2016-11-17T11:00:59.822Z,4884
2016-11-17T11:01:59.843Z,4780
2016-11-17T11:02:59.841Z,4520
2016-11-17T11:03:59.871Z,4168
2016-11-17T11:04:59.880Z,3680
2016-11-17T11:05:59.910Z,3220
2016-11-17T11:06:59.916Z,2904
2016-11-17T11:07:59.927Z,2688
2016-11-17T11:08:59.952Z,2536
2016-11-17T11:09:59.980Z,2348
2016-11-17T11:10:59.986Z,2232
2016-11-17T11:12:00.007Z,2172
2016-11-17T11:13:00.016Z,2040
2016-11-17T11:14:00.039Z,1860
2016-11-17T11:15:00.041Z,1716
2016-11-17T11:16:00.072Z,1588
2016-11-17T11:17:00.082Z,1464
2016-11-17T11:18:00.101Z,1384
2016-11-17T11:19:00.116Z,1372
2016-11-17T11:20:00.127Z,1344
2016-11-17T11:21:00.151Z,1304
2016-11-17T11:22:00.169Z,1348
2016-11-17T11:23:00.168Z,1472
2016-11-17T11:24:00.242Z,1600
2016-11-17T11:25:00.216Z,1636
2016-11-17T11:26:00.229Z,1560
2016-11-17T11:27:00.246Z,1444
2016-11-17T11:28:00.342Z,1344
2016-11-17T11:29:00.282Z,1280
2016-11-17T11:30:00.303Z,1232
2016-11-17T11:31:00.425Z,1212
2016-11-17T11:32:00.342Z,1216
2016-11-17T11:33:00.346Z,1200
2016-11-17T11:34:00.362Z,1192
2016-11-17T11:35:00.367Z,1240
2016-11-17T11:36:00.399Z,1312
2016-11-17T11:37:00.399Z,1408
2016-11-17T11:38:00.416Z,1508
2016-11-17T11:39:00.435Z,1632
2016-11-17T11:40:00.452Z,1852
2016-11-17T11:41:00.472Z,2060
2016-11-17T11:42:00.493Z,2168
2016-11-17T11:43:00.588Z,2352
2016-11-17T11:44:00.513Z,2412
2016-11-17T11:45:00.548Z,2396
2016-11-17T11:46:00.551Z,2400
2016-11-17T11:47:00.565Z,2584
2016-11-17T11:48:00.587Z,3020
2016-11-17T11:49:00.600Z,3276
2016-11-17T11:50:00.642Z,3460
2016-11-17T11:51:00.682Z,3496
2016-11-17T11:52:00.648Z,3512
2016-11-17T11:53:00.665Z,3484
2016-11-17T11:54:00.740Z,3456
2016-11-17T11:55:00.745Z,3524
2016-11-17T11:56:00.765Z,3584
2016-11-17T11:57:00.766Z,3536
2016-11-17T11:58:00.765Z,3264
2016-11-17T11:59:00.771Z,3120
2016-11-17T12:00:00.782Z,3284
2016-11-17T12:01:00.794Z,3316
2016-11-17T12:02:00.819Z,3216
2016-11-17T12:03:00.862Z,3192
2016-11-17T12:04:00.847Z,3120
2016-11-17T12:05:00.900Z,3120
2016-11-17T12:06:01.191Z,3212
2016-11-17T12:07:00.892Z,3360
2016-11-17T12:08:00.952Z,3640
2016-11-17T12:09:00.965Z,3780
2016-11-17T12:10:00.932Z,3700
2016-11-17T12:11:00.970Z,3596
2016-11-17T12:12:00.971Z,3364
2016-11-17T12:13:00.992Z,3164
2016-11-17T12:14:01.004Z,3144
2016-11-17T12:15:01.012Z,3212
2016-11-17T12:16:01.032Z,3292
2016-11-17T12:17:01.047Z,3400
2016-11-17T12:18:01.064Z,3412
2016-11-17T12:19:01.080Z,3540
2016-11-17T12:20:01.119Z,3868
2016-11-17T12:21:01.112Z,4092
2016-11-17T12:22:01.138Z,4172
2016-11-17T12:23:01.149Z,4032
2016-11-17T12:24:01.171Z,3852
2016-11-17T12:25:01.183Z,3868
2016-11-17T12:26:01.355Z,3856
2016-11-17T12:27:01.221Z,3900
2016-11-17T12:28:01.262Z,4004
2016-11-17T12:29:01.247Z,3992
2016-11-17T12:30:01.270Z,4012
2016-11-17T12:31:01.281Z,4132
2016-11-17T12:32:01.294Z,4300
2016-11-17T12:33:01.307Z,4392
2016-11-17T12:34:01.339Z,4520
2016-11-17T12:35:01.346Z,4664
2016-11-17T12:36:01.362Z,4848
2016-11-17T12:37:01.457Z,4644
2016-11-17T12:38:01.407Z,4528
2016-11-17T12:39:01.460Z,4448
2016-11-17T12:40:01.435Z,4444
2016-11-17T12:41:01.458Z,4412
2016-11-17T12:42:01.467Z,4340
2016-11-17T12:43:01.485Z,4288
2016-11-17T12:44:01.496Z,4344
2016-11-17T12:45:01.574Z,4616
2016-11-17T12:46:01.531Z,5196
2016-11-17T12:47:01.611Z,5480
2016-11-17T12:48:01.576Z,5428
2016-11-17T12:49:01.665Z,5316
2016-11-17T12:50:01.614Z,5136
2016-11-17T12:51:01.671Z,5260
2016-11-17T12:52:01.629Z,5224
2016-11-17T12:53:01.673Z,5128
2016-11-17T12:54:01.675Z,5088
2016-11-17T12:55:01.707Z,5000
2016-11-17T12:56:01.712Z,4912
2016-11-17T12:57:01.754Z,4776
2016-11-17T12:58:01.729Z,4720
2016-11-17T12:59:01.761Z,4668
2016-11-17T13:00:01.864Z,4604
2016-11-17T13:01:01.800Z,4404
2016-11-17T13:02:02.130Z,4156
2016-11-17T13:03:01.829Z,4208
2016-11-17T13:04:01.850Z,4472
2016-11-17T13:05:01.858Z,4316
2016-11-17T13:06:01.897Z,4604
2016-11-17T13:07:01.880Z,4456
2016-11-17T13:08:01.916Z,4484
2016-11-17T13:09:01.918Z,4812
2016-11-17T13:10:01.979Z,5000
2016-11-17T13:11:01.982Z,5196
2016-11-17T13:12:02.004Z,5220
2016-11-17T13:13:02.024Z,5252
2016-11-17T13:14:02.013Z,5224
2016-11-17T13:15:02.029Z,5208
2016-11-17T13:16:02.046Z,5164
2016-11-17T13:17:02.059Z,5088
2016-11-17T13:18:02.085Z,5028
2016-11-17T13:19:02.091Z,4912
2016-11-17T13:20:02.111Z,4700
2016-11-17T13:21:02.135Z,4496
2016-11-17T13:22:02.153Z,4372
2016-11-17T13:23:02.170Z,4292
2016-11-17T13:24:02.179Z,4228
2016-11-17T13:25:02.192Z,4164
2016-11-17T13:26:02.550Z,4172
2016-11-17T13:27:02.222Z,4268
2016-11-17T13:28:02.249Z,4136
2016-11-17T13:29:02.259Z,4188
2016-11-17T13:30:02.274Z,4272
2016-11-17T13:31:17.145Z,4264
2016-11-17T13:32:02.311Z,4212
2016-11-17T13:33:02.343Z,4052
2016-11-17T13:34:02.346Z,4152
2016-11-17T13:35:02.367Z,4196
2016-11-17T13:36:02.385Z,4140
2016-11-17T13:37:02.398Z,4052
2016-11-17T13:38:02.427Z,3960
2016-11-17T13:39:02.439Z,3908
2016-11-17T13:40:02.453Z,3812
2016-11-17T13:41:02.457Z,3740
2016-11-17T13:42:02.483Z,3684
2016-11-17T13:43:02.529Z,3644
2016-11-17T13:44:02.540Z,3532
2016-11-17T13:45:02.540Z,3404
2016-11-17T13:46:02.562Z,3340
2016-11-17T13:47:02.574Z,3288
2016-11-17T13:48:02.591Z,3188
2016-11-17T13:49:02.623Z,3084
2016-11-17T13:50:02.660Z,3020
2016-11-17T13:51:02.660Z,2964
2016-11-17T13:52:02.658Z,2892
2016-11-17T13:53:02.671Z,2856
2016-11-17T13:54:02.694Z,2804
2016-11-17T13:55:02.699Z,2792
2016-11-17T13:56:02.733Z,2764
2016-11-17T13:57:02.738Z,2672
2016-11-17T13:58:02.751Z,2604
2016-11-17T13:59:02.793Z,2512
2016-11-17T14:00:02.775Z,2392
2016-11-17T14:01:02.799Z,2296
2016-11-17T14:02:02.823Z,2200
2016-11-17T14:03:02.843Z,2128